Time;durP1;ratioP1;P1;durP2;ratioP2;P2;SDS_P1;SDS_P2;PMS_P1;PMS_P2;Temp;Humidity;BMP_temperature;BMP_pressure;BME280_temperature;BME280_humidity;BME280_pressure;Samples;Min_cycle;Max_cycle;Signal;HPM_P1;HPM_P2
2023/05/25 00:02:08;;;;;;;9.00;4.25;;;;;;;;;;6224555;22;20015;-83
2023/05/25 00:04:35;;;;;;;10.20;3.90;;;;;;;;;;6249251;22;20011;-83
2023/05/25 00:07:02;;;;;;;8.52;3.88;;;9.80;99.90;;;;;;6275340;22;20069;-83
2023/05/25 00:09:28;;;;;;;8.77;3.80;;;;;;;;;;6275233;22;20099;-83
2023/05/25 00:11:54;;;;;;;10.23;4.50;;;;;;;;;;6249950;22;20019;-82
2023/05/25 00:14:21;;;;;;;7.93;3.67;;;;;;;;;;6249640;22;20065;-82
2023/05/25 00:16:47;;;;;;;9.95;3.92;;;;;;;;;;6274890;22;20051;-82
2023/05/25 00:19:14;;;;;;;4.68;3.28;;;;;;;;;;6275396;22;20016;-82
2023/05/25 00:21:41;;;;;;;5.50;3.63;;;;;;;;;;6275567;22;20020;-82
2023/05/25 00:24:07;;;;;;;8.38;4.47;;;;;;;;;;6275129;22;20054;-82
2023/05/25 00:26:34;;;;;;;10.13;4.07;;;9.60;99.90;;;;;;6224590;22;20024;-82
2023/05/25 00:29:00;;;;;;;4.72;3.60;;;;;;;;;;6249412;22;20074;-82
2023/05/25 00:31:27;;;;;;;11.57;4.00;;;9.50;99.90;;;;;;6275086;22;20019;-82
2023/05/25 00:33:53;;;;;;;9.82;4.35;;;;;;;;;;6249380;22;20023;-82
2023/05/25 00:36:19;;;;;;;7.82;4.30;;;;;;;;;;6274700;22;20023;-82
2023/05/25 00:38:45;;;;;;;11.27;4.32;;;;;;;;;;6224064;22;20437;-82
2023/05/25 00:41:12;;;;;;;7.57;3.75;;;9.50;99.90;;;;;;6274939;22;20052;-82
2023/05/25 00:43:38;;;;;;;10.15;4.03;;;;;;;;;;6274692;22;20016;-82
2023/05/25 00:46:04;;;;;;;10.00;4.00;;;;;;;;;;6274826;22;20047;-81
2023/05/25 00:48:33;;;;;;;4.50;3.40;;;;;;;;;;6274826;22;20016;-81
2023/05/25 00:50:59;;;;;;;12.45;4.15;;;;;;;;;;6249323;22;20020;-80
2023/05/25 00:53:25;;;;;;;10.95;4.13;;;;;;;;;;6274774;22;20012;-80
2023/05/25 00:56:06;;;;;;;9.80;3.97;;;9.50;99.90;;;;;;6274779;22;20020;-79
2023/05/25 00:58:33;;;;;;;6.07;3.67;;;9.40;99.90;;;;;;6276793;22;20011;-80
2023/05/25 01:01:01;;;;;;;15.10;5.55;;;9.50;99.90;;;;;;6274813;22;20027;-81
2023/05/25 01:03:33;;;;;;;9.48;5.05;;;9.40;99.90;;;;;;6249284;22;20016;-80
2023/05/25 01:06:00;;;;;;;11.82;4.63;;;;;;;;;;6275042;22;20456;-80
2023/05/25 01:08:27;;;;;;;9.07;3.80;;;;;;;;;;6274799;22;20023;-80
2023/05/25 01:10:54;;;;;;;12.43;5.00;;;;;;;;;;6249267;22;20356;-80
2023/05/25 01:13:20;;;;;;;10.13;4.47;;;;;;;;;;6274662;22;20102;-80
2023/05/25 01:15:47;;;;;;;12.57;4.78;;;9.40;99.90;;;;;;6276453;22;20483;-80
2023/05/25 01:18:16;;;;;;;14.25;6.03;;;9.40;99.90;;;;;;6251083;22;20016;-80
2023/05/25 01:20:55;;;;;;;7.97;4.18;;;;;;;;;;6251134;22;20059;-80
2023/05/25 01:24:16;;;;;;;11.52;4.45;;;9.30;99.90;;;;;;6251252;22;20023;-80
2023/05/25 01:26:47;;;;;;;10.90;4.50;;;9.40;99.90;;;;;;6276394;22;20391;-79
2023/05/25 01:29:16;;;;;;;8.27;4.07;;;9.40;99.90;;;;;;6251010;22;20322;-81
2023/05/25 01:31:42;;;;;;;12.52;4.70;;;;;;;;;;6250973;22;20072;-81
2023/05/25 01:34:11;;;;;;;8.68;4.68;;;9.40;99.90;;;;;;6251062;22;20015;-82
2023/05/25 01:36:37;;;;;;;7.28;4.65;;;;;;;;;;6225931;22;20091;-82
2023/05/25 01:39:05;;;;;;;8.32;5.22;;;9.40;99.90;;;;;;6276428;22;20015;-82
2023/05/25 01:41:31;;;;;;;5.68;4.03;;;;;;;;;;6251013;22;20019;-82
2023/05/25 01:43:57;;;;;;;12.45;4.03;;;;;;;;;;6276166;22;20023;-82
2023/05/25 01:46:40;;;;;;;9.07;4.88;;;9.30;99.90;;;;;;6276352;22;20030;-82
2023/05/25 01:49:12;;;;;;;8.37;4.83;;;;;;;;;;6276202;22;20039;-81
2023/05/25 01:51:54;;;;;;;8.88;4.90;;;;;;;;;;6276223;22;20399;-82
2023/05/25 01:54:26;;;;;;;11.30;5.45;;;9.10;99.90;;;;;;6276201;22;20012;-80
2023/05/25 01:56:55;;;;;;;13.55;5.05;;;9.20;99.90;;;;;;6278118;22;20344;-80
2023/05/25 01:59:21;;;;;;;12.77;6.15;;;;;;;;;;6276648;22;20015;-80
2023/05/25 02:01:49;;;;;;;6.15;4.47;;;9.20;99.90;;;;;;6276220;22;20016;-80
2023/05/25 02:04:17;;;;;;;4.18;3.20;;;9.20;99.90;;;;;;6276571;22;20012;-80
2023/05/25 02:06:43;;;;;;;7.25;3.38;;;;;;;;;;6250634;22;20016;-80
2023/05/25 02:09:09;;;;;;;7.72;3.83;;;;;;;;;;6250476;22;20011;-80
2023/05/25 02:11:35;;;;;;;4.65;3.10;;;;;;;;;;6250642;22;20035;-80
2023/05/25 02:14:02;;;;;;;4.82;3.00;;;;;;;;;;6275835;22;20022;-80
2023/05/25 02:16:28;;;;;;;5.78;4.03;;;;;;;;;;6275969;22;20401;-79
2023/05/25 02:18:56;;;;;;;11.85;4.63;;;;;;;;;;6275993;22;20015;-79
2023/05/25 02:21:23;;;;;;;9.40;4.85;;;;;;;;;;6250522;22;20027;-79
2023/05/25 02:23:49;;;;;;;8.05;4.80;;;;;;;;;;6250531;22;20472;-80
2023/05/25 02:26:15;;;;;;;9.63;4.53;;;;;;;;;;6275398;22;20022;-81
2023/05/25 02:28:41;;;;;;;12.43;4.65;;;;;;;;;;6225267;22;20022;-80
2023/05/25 02:31:07;;;;;;;10.95;4.97;;;;;;;;;;6275872;22;20011;-80
2023/05/25 02:33:33;;;;;;;10.10;5.13;;;;;;;;;;6275836;22;20051;-79
2023/05/25 02:36:00;;;;;;;6.03;4.18;;;;;;;;;;6275701;22;20042;-80
2023/05/25 02:38:26;;;;;;;11.13;5.07;;;;;;;;;;6224994;22;20016;-81
2023/05/25 02:40:52;;;;;;;7.63;5.25;;;;;;;;;;6275707;22;20507;-83
2023/05/25 02:43:18;;;;;;;10.35;6.38;;;;;;;;;;6275418;22;20019;-82
2023/05/25 02:45:44;;;;;;;10.10;5.38;;;;;;;;;;6275614;22;20055;-82
2023/05/25 02:48:10;;;;;;;9.60;4.65;;;;;;;;;;6275763;22;20012;-84
2023/05/25 02:50:36;;;;;;;8.10;4.32;;;;;;;;;;6250308;22;20406;-82
2023/05/25 02:53:02;;;;;;;8.93;5.28;;;8.90;99.90;;;;;;6277524;22;20070;-81
2023/05/25 02:55:28;;;;;;;11.07;5.63;;;;;;;;;;6275486;22;20015;-81
2023/05/25 02:57:55;;;;;;;12.00;4.88;;;;;;;;;;6277253;22;20015;-82
2023/05/25 03:00:21;;;;;;;13.60;5.43;;;;;;;;;;6275585;22;20030;-81
2023/05/25 03:02:47;;;;;;;11.13;5.07;;;;;;;;;;6250065;22;20095;-83
2023/05/25 03:05:15;;;;;;;10.30;4.82;;;8.90;99.90;;;;;;6249909;22;20030;-82
2023/05/25 03:07:42;;;;;;;15.55;5.63;;;;;;;;;;6277039;22;20047;-82
2023/05/25 03:10:08;;;;;;;8.07;5.07;;;;;;;;;;6277012;22;20069;-83
2023/05/25 03:12:34;;;;;;;12.05;5.55;;;;;;;;;;6275419;22;20023;-80
2023/05/25 03:15:00;;;;;;;10.23;5.22;;;;;;;;;;6249894;22;20030;-80
2023/05/25 03:17:26;;;;;;;13.18;5.28;;;;;;;;;;6275018;22;20036;-80
2023/05/25 03:19:53;;;;;;;7.43;5.10;;;;;;;;;;6275029;22;20015;-80
2023/05/25 03:22:19;;;;;;;9.82;5.30;;;;;;;;;;6249464;22;20016;-80
2023/05/25 03:24:45;;;;;;;8.88;5.35;;;;;;;;;;6249684;22;20020;-80
2023/05/25 03:27:11;;;;;;;7.00;5.00;;;;;;;;;;6275383;22;20035;-80
2023/05/25 03:29:37;;;;;;;7.90;4.97;;;;;;;;;;6275297;22;20404;-80
2023/05/25 03:32:03;;;;;;;9.43;4.80;;;;;;;;;;6275240;22;20396;-80
2023/05/25 03:34:29;;;;;;;14.07;4.53;;;;;;;;;;6249579;22;20015;-80
2023/05/25 03:36:56;;;;;;;6.20;3.33;;;;;;;;;;6275084;22;20073;-80
2023/05/25 03:39:22;;;;;;;7.72;3.22;;;;;;;;;;6224891;22;20012;-81
2023/05/25 03:41:48;;;;;;;11.15;3.85;;;;;;;;;;6249779;22;20054;-81
2023/05/25 03:44:14;;;;;;;7.80;4.55;;;;;;;;;;6249506;22;20012;-82
2023/05/25 03:46:40;;;;;;;4.43;4.03;;;;;;;;;;6275096;22;20051;-81
2023/05/25 03:49:06;;;;;;;6.47;2.40;;;;;;;;;;6275003;22;20019;-81
2023/05/25 03:51:32;;;;;;;2.00;1.90;;;;;;;;;;6275169;22;20414;-81
2023/05/25 03:53:58;;;;;;;1.98;1.70;;;;;;;;;;6275167;22;20077;-82
2023/05/25 03:56:25;;;;;;;2.75;2.17;;;;;;;;;;6249490;22;20072;-82
2023/05/25 03:58:51;;;;;;;2.50;2.05;;;;;;;;;;6224515;22;20015;-82
2023/05/25 04:01:17;;;;;;;4.45;2.83;;;;;;;;;;6249806;22;20026;-81
2023/05/25 04:03:44;;;;;;;4.75;3.42;;;;;;;;;;6275180;22;20019;-82
2023/05/25 04:06:10;;;;;;;5.88;4.07;;;;;;;;;;6249316;22;20019;-81
2023/05/25 04:08:36;;;;;;;8.27;4.07;;;;;;;;;;6275042;22;20027;-81
2023/05/25 04:11:02;;;;;;;10.57;5.20;;;;;;;;;;6275282;22;20069;-81
2023/05/25 04:13:28;;;;;;;11.65;5.15;;;;;;;;;;6249575;22;20012;-82
2023/05/25 04:15:54;;;;;;;9.93;5.13;;;;;;;;;;6249282;22;20055;-81
2023/05/25 04:18:21;;;;;;;7.63;4.22;;;;;;;;;;6275306;22;20016;-82
2023/05/25 04:20:47;;;;;;;9.35;4.28;;;;;;;;;;6249416;22;20023;-81
2023/05/25 04:23:13;;;;;;;8.45;5.47;;;;;;;;;;6274802;22;20031;-82
2023/05/25 04:25:40;;;;;;;7.88;5.35;;;;;;;;;;6249469;22;20012;-83
2023/05/25 04:28:07;;;;;;;15.60;5.90;;;;;;;;;;6275020;22;20440;-80
2023/05/25 04:30:35;;;;;;;10.32;5.85;;;;;;;;;;6274911;22;20020;-80
2023/05/25 04:33:01;;;;;;;7.88;4.85;;;;;;;;;;6274784;22;20015;-80
2023/05/25 04:35:27;;;;;;;10.32;6.00;;;;;;;;;;6274753;22;20334;-81
2023/05/25 04:37:55;;;;;;;15.68;5.85;;;;;;;;;;6249461;22;20090;-80
2023/05/25 04:40:21;;;;;;;13.98;5.80;;;;;;;;;;6274994;22;20020;-81
2023/05/25 04:42:47;;;;;;;8.02;6.20;;;;;;;;;;6274816;22;20050;-80
2023/05/25 04:45:20;;;;;;;17.45;6.03;;;;;;;;;;6274948;22;20063;-81
2023/05/25 04:47:46;;;;;;;11.80;6.05;;;;;;;;;;6250811;22;20044;-81
2023/05/25 04:50:12;;;;;;;15.95;6.00;;;;;;;;;;6276185;22;20049;-82
2023/05/25 04:52:38;;;;;;;10.93;6.38;;;;;;;;;;6276630;22;20099;-81
2023/05/25 04:55:04;;;;;;;14.93;7.10;;;;;;;;;;6276813;22;20026;-80
2023/05/25 04:57:31;;;;;;;12.55;7.97;;;;;;;;;;6226107;22;20035;-80
2023/05/25 04:59:59;;;;;;;17.10;6.90;;;;;;;;;;6276641;22;20086;-80
2023/05/25 05:02:25;;;;;;;15.85;6.93;;;;;;;;;;6251375;22;20012;-80
2023/05/25 05:04:52;;;;;;;19.95;7.82;;;;;;;;;;6251158;22;20098;-80
2023/05/25 05:07:22;;;;;;;15.70;7.95;;;;;;;;;;6276748;22;20098;-80
2023/05/25 05:09:48;;;;;;;18.40;7.15;;;;;;;;;;6251130;22;20354;-80
2023/05/25 05:12:14;;;;;;;21.55;7.68;;;;;;;;;;6251245;22;20012;-80
2023/05/25 05:14:41;;;;;;;15.30;6.72;;;;;;;;;;6278199;22;20023;-80
2023/05/25 05:17:07;;;;;;;17.00;8.20;;;;;;;;;;6276341;22;20547;-81
2023/05/25 05:19:36;;;;;;;19.23;7.85;;;10.10;99.90;;;;;;6251611;22;20054;-80
2023/05/25 05:22:02;;;;;;;23.27;9.02;;;;;;;;;;6250874;22;20027;-80
2023/05/25 05:24:28;;;;;;;25.23;8.52;;;;;;;;;;6251164;22;20027;-80
2023/05/25 05:26:54;;;;;;;18.55;8.65;;;;;;;;;;6277620;22;20019;-80
2023/05/25 05:29:27;;;;;;;18.48;8.15;;;;;;;;;;6252592;22;20500;-80
2023/05/25 05:31:55;;;;;;;14.32;7.75;;;10.30;99.90;;;;;;6276578;22;20344;-80
2023/05/25 05:34:21;;;;;;;23.48;9.18;;;;;;;;;;6276450;22;20015;-81
2023/05/25 05:36:49;;;;;;;19.70;8.70;;;;;;;;;;6250628;22;20019;-80
2023/05/25 05:39:15;;;;;;;17.05;8.65;;;;;;;;;;6276158;22;20023;-81
2023/05/25 05:41:43;;;;;;;12.40;8.50;;;10.80;99.90;;;;;;6276545;22;20020;-80
2023/05/25 05:44:11;;;;;;;18.35;8.32;;;;;;;;;;6251232;22;20015;-80
2023/05/25 05:46:37;;;;;;;21.15;8.48;;;;;;;;;;6250617;22;20024;-80
2023/05/25 05:49:03;;;;;;;20.20;8.23;;;;;;;;;;6276249;22;20341;-80
2023/05/25 05:51:29;;;;;;;19.42;7.55;;;;;;;;;;6250678;22;20150;-81
2023/05/25 05:53:55;;;;;;;12.57;7.38;;;10.80;99.90;;;;;;6250602;22;20066;-81
2023/05/25 05:56:21;;;;;;;17.80;7.97;;;;;;;;;;6250715;22;20460;-80
2023/05/25 05:58:48;;;;;;;20.58;7.70;;;11.30;99.90;;;;;;6276090;22;20012;-80
2023/05/25 06:01:16;;;;;;;14.25;6.90;;;11.40;99.90;;;;;;6275540;22;20016;-81
2023/05/25 06:03:42;;;;;;;20.52;7.50;;;11.60;99.90;;;;;;6276608;22;20047;-81
2023/05/25 06:06:08;;;;;;;15.50;6.97;;;;;;;;;;6225505;22;20460;-80
2023/05/25 06:08:34;;;;;;;15.65;7.10;;;;;;;;;;6275988;22;20019;-84
2023/05/25 06:11:00;;;;;;;12.55;6.35;;;;;;;;;;6276065;22;20094;-84
2023/05/25 06:13:26;;;;;;;14.05;5.53;;;11.90;99.90;;;;;;6225777;22;20023;-83
2023/05/25 06:15:52;;;;;;;11.60;6.75;;;;;;;;;;6275857;22;20026;-82
2023/05/25 06:18:18;;;;;;;16.15;5.80;;;11.80;99.90;;;;;;6276236;22;20012;-81
2023/05/25 06:20:44;;;;;;;10.82;6.13;;;;;;;;;;6250859;22;20050;-82
2023/05/25 06:23:12;;;;;;;14.73;6.18;;;;;;;;;;6251378;22;20326;-84
2023/05/25 06:25:38;;;;;;;12.57;5.10;;;;;;;;;;6276861;22;20351;-84
2023/05/25 06:28:04;;;;;;;15.15;5.18;;;12.10;99.90;;;;;;6250805;22;20008;-84
2023/05/25 06:30:30;;;;;;;14.65;5.40;;;;;;;;;;6250673;22;20022;-81
2023/05/25 06:32:57;;;;;;;12.95;4.53;;;;;;;;;;6275857;22;20011;-82
2023/05/25 06:35:22;;;;;;;9.10;4.30;;;12.20;99.90;;;;;;6275664;22;20027;-81
2023/05/25 06:37:49;;;;;;;17.10;4.70;;;12.40;99.90;;;;;;6200241;22;20340;-82
2023/05/25 06:40:15;;;;;;;21.92;4.72;;;;;;;;;;6250174;22;20007;-82
2023/05/25 06:42:41;;;;;;;17.55;4.63;;;;;;;;;;6275837;22;20349;-81
2023/05/25 06:45:08;;;;;;;11.32;4.80;;;;;;;;;;6275735;22;20467;-84
2023/05/25 06:47:34;;;;;;;16.15;5.03;;;;;;;;;;6275499;22;20024;-84
2023/05/25 06:50:00;;;;;;;20.50;4.90;;;12.50;99.90;;;;;;6275717;22;20019;-81
2023/05/25 06:52:30;;;;;;;12.27;5.00;;;;;;;;;;6250466;22;20015;-83
2023/05/25 06:54:56;;;;;;;10.43;4.15;;;;;;;;;;6250011;22;20444;-82
2023/05/25 06:57:23;;;;;;;22.48;5.65;;;;;;;;;;6250135;22;20023;-84
2023/05/25 06:59:49;;;;;;;16.75;4.72;;;12.70;99.90;;;;;;6250132;22;20460;-85
2023/05/25 07:02:15;;;;;;;11.07;3.90;;;;;;;;;;6200034;22;20015;-83
2023/05/25 07:04:41;;;;;;;18.33;5.18;;;;;;;;;;6250188;22;20085;-83
2023/05/25 07:07:08;;;;;;;8.75;4.03;;;;;;;;;;6276186;22;20015;-84
2023/05/25 07:09:34;;;;;;;8.68;4.40;;;;;;;;;;6275588;22;20015;-83
2023/05/25 07:12:01;;;;;;;13.48;3.75;;;;;;;;;;6275342;22;20095;-82
2023/05/25 07:14:27;;;;;;;16.00;4.40;;;13.30;99.90;;;;;;6250098;22;20038;-84
2023/05/25 07:16:53;;;;;;;12.98;4.07;;;;;;;;;;6224570;22;20472;-80
2023/05/25 07:19:19;;;;;;;11.27;4.30;;;;;;;;;;6250054;22;20023;-81
2023/05/25 07:21:45;;;;;;;17.27;4.60;;;;;;;;;;6250028;22;20051;-81
2023/05/25 07:24:10;;;;;;;13.85;4.88;;;13.40;99.90;;;;;;6225331;22;20016;-82
2023/05/25 07:26:36;;;;;;;19.88;5.70;;;;;;;;;;6224643;22;20070;-82
2023/05/25 07:29:02;;;;;;;13.93;4.70;;;13.50;99.90;;;;;;6250117;22;20012;-81
2023/05/25 07:31:28;;;;;;;15.00;5.60;;;13.50;99.90;;;;;;6249849;22;20399;-81
2023/05/25 07:33:54;;;;;;;16.45;4.57;;;;;;;;;;6274858;22;20397;-81
2023/05/25 07:36:23;;;;;;;17.10;4.72;;;;;;;;;;6249057;22;20465;-81
2023/05/25 07:38:49;;;;;;;13.65;4.85;;;;;;;;;;6274710;22;20015;-81
2023/05/25 07:41:15;;;;;;;32.67;6.07;;;13.50;99.90;;;;;;6249221;22;20062;-81
2023/05/25 07:43:41;;;;;;;23.95;4.53;;;;;;;;;;6274580;22;20012;-80
2023/05/25 07:46:06;;;;;;;13.57;4.88;;;13.40;99.90;;;;;;6223664;22;20055;-82
2023/05/25 07:48:33;;;;;;;15.23;4.35;;;;;;;;;;6248894;22;20027;-84
2023/05/25 07:50:59;;;;;;;23.00;4.97;;;;;;;;;;6274532;22;20027;-84
2023/05/25 07:53:25;;;;;;;17.38;4.95;;;13.70;99.90;;;;;;6248774;22;20016;-81
2023/05/25 07:55:51;;;;;;;20.60;5.45;;;;;;;;;;6248861;22;20012;-83
2023/05/25 07:58:17;;;;;;;24.10;5.55;;;;;;;;;;6248673;22;20012;-84
2023/05/25 08:00:43;;;;;;;12.88;5.65;;;13.80;99.90;;;;;;6274590;22;20058;-84
2023/05/25 08:03:09;;;;;;;14.95;4.35;;;;;;;;;;6198919;22;20016;-83
2023/05/25 08:05:35;;;;;;;22.25;4.70;;;;;;;;;;6249009;22;20019;-83
2023/05/25 08:08:01;;;;;;;14.57;4.88;;;;;;;;;;6249104;22;20453;-84
2023/05/25 08:10:30;;;;;;;24.40;5.38;;;;;;;;;;6274503;22;20020;-83
2023/05/25 08:12:57;;;;;;;19.92;4.78;;;13.80;99.90;;;;;;6248819;22;20055;-83
2023/05/25 08:15:23;;;;;;;17.98;6.05;;;13.90;99.90;;;;;;6223517;22;20345;-83
2023/05/25 08:17:50;;;;;;;17.52;4.43;;;;;;;;;;6248623;22;20487;-83
2023/05/25 08:20:16;;;;;;;22.50;4.95;;;14.10;99.90;;;;;;6274118;22;20039;-84
2023/05/25 08:22:44;;;;;;;15.93;4.88;;;13.70;99.90;;;;;;6274384;22;20016;-83
2023/05/25 08:25:11;;;;;;;20.60;5.47;;;;;;;;;;6200962;22;20455;-84
2023/05/25 08:27:36;;;;;;;21.98;6.15;;;14.20;99.90;;;;;;6250756;22;20344;-83
2023/05/25 08:30:04;;;;;;;29.98;5.15;;;;;;;;;;6250621;22;20020;-83
2023/05/25 08:32:30;;;;;;;11.82;4.57;;;;;;;;;;6250752;22;20012;-84
2023/05/25 08:34:56;;;;;;;23.30;5.18;;;14.50;99.90;;;;;;6250763;22;20066;-84
2023/05/25 08:37:23;;;;;;;14.13;4.18;;;14.50;99.90;;;;;;6250960;22;20098;-83
2023/05/25 08:39:49;;;;;;;24.33;5.60;;;;;;;;;;6225916;22;20456;-84
2023/05/25 08:42:15;;;;;;;18.17;4.88;;;14.30;99.90;;;;;;6250752;22;20058;-83
2023/05/25 08:44:41;;;;;;;18.42;5.82;;;;;;;;;;6250338;22;20023;-83
2023/05/25 08:47:07;;;;;;;19.70;5.22;;;14.30;99.90;;;;;;6250616;22;20122;-83
2023/05/25 08:49:40;;;;;;;11.73;4.30;;;14.30;99.90;;;;;;6250592;22;20119;-82
2023/05/25 08:52:12;;;;;;;21.70;5.67;;;14.30;99.90;;;;;;6276143;22;20012;-81
2023/05/25 08:54:38;;;;;;;16.38;4.32;;;;;;;;;;6250686;22;20087;-82
2023/05/25 08:57:05;;;;;;;16.67;4.70;;;;;;;;;;6250916;22;20070;-81
2023/05/25 08:59:41;;;;;;;16.58;4.97;;;14.70;99.90;;;;;;6276336;22;20027;-81
2023/05/25 09:02:32;;;;;;;15.88;4.40;;;14.80;99.90;;;;;;6250825;22;20131;-81
2023/05/25 09:05:00;;;;;;;20.90;5.70;;;14.60;99.90;;;;;;6250719;22;20023;-81
2023/05/25 09:07:26;;;;;;;16.45;5.05;;;14.60;99.90;;;;;;6225299;22;20012;-81
2023/05/25 09:09:52;;;;;;;15.60;4.72;;;14.40;99.90;;;;;;6275773;22;20348;-81
2023/05/25 09:12:20;;;;;;;16.73;4.63;;;14.80;99.90;;;;;;6275849;22;20012;-82
2023/05/25 09:14:47;;;;;;;25.17;5.28;;;14.50;99.90;;;;;;6250930;22;20089;-82
2023/05/25 09:17:17;;;;;;;24.23;5.78;;;14.60;99.90;;;;;;6225179;22;20016;-81
2023/05/25 09:19:43;;;;;;;13.77;4.35;;;;;;;;;;6250856;22;20202;-81
2023/05/25 09:22:10;;;;;;;14.32;4.18;;;;;;;;;;6275711;22;20019;-81
2023/05/25 09:24:36;;;;;;;19.02;4.72;;;14.70;99.90;;;;;;6250009;22;20344;-81
2023/05/25 09:27:02;;;;;;;19.85;5.50;;;;;;;;;;6250090;22;20063;-81
2023/05/25 09:29:31;;;;;;;10.20;3.85;;;;;;;;;;6225258;22;20016;-81
2023/05/25 09:31:57;;;;;;;21.10;4.28;;;;;;;;;;6250352;22;20058;-82
2023/05/25 09:34:22;;;;;;;17.15;5.18;;;14.80;99.90;;;;;;6250018;22;20072;-84
2023/05/25 09:36:49;;;;;;;16.13;5.20;;;;;;;;;;6275493;22;20015;-84
2023/05/25 09:39:15;;;;;;;15.00;5.55;;;;;;;;;;6275917;22;20012;-83
2023/05/25 09:41:42;;;;;;;19.63;4.80;;;15.10;99.90;;;;;;6250335;22;20034;-83
2023/05/25 09:44:08;;;;;;;11.45;3.75;;;14.90;99.90;;;;;;6275327;22;20020;-82
2023/05/25 09:46:37;;;;;;;20.83;5.10;;;;;;;;;;6275352;22;20536;-83
2023/05/25 09:49:07;;;;;;;32.75;5.65;;;15.00;99.90;;;;;;6251215;22;20015;-82
2023/05/25 09:51:37;;;;;;;15.48;4.88;;;;;;;;;;6250208;22;20016;-84
2023/05/25 09:54:03;;;;;;;20.40;4.70;;;15.20;99.90;;;;;;6249942;22;20094;-84
2023/05/25 09:56:32;;;;;;;16.58;4.38;;;15.20;99.90;;;;;;6250079;22;20071;-82
2023/05/25 09:58:58;;;;;;;19.48;5.00;;;;;;;;;;6275671;22;20378;-83
2023/05/25 10:01:26;;;;;;;13.95;4.50;;;;;;;;;;6275498;22;20016;-83
2023/05/25 10:03:55;;;;;;;16.92;5.07;;;15.30;99.90;;;;;;6250007;22;20015;-83
2023/05/25 10:06:24;;;;;;;19.35;4.93;;;15.20;99.90;;;;;;6249674;22;20016;-82
2023/05/25 10:08:52;;;;;;;16.60;4.55;;;15.30;99.90;;;;;;6275463;22;20035;-83
2023/05/25 10:11:18;;;;;;;25.08;6.55;;;;;;;;;;6275316;22;20058;-83
2023/05/25 10:13:45;;;;;;;17.65;6.20;;;15.30;99.90;;;;;;6224712;22;20058;-82
2023/05/25 10:16:16;;;;;;;19.63;6.63;;;15.40;99.90;;;;;;6275401;22;20383;-83
2023/05/25 10:19:02;;;;;;;26.35;5.60;;;15.50;99.90;;;;;;6225346;22;20179;-81
2023/05/25 10:21:30;;;;;;;17.63;5.90;;;15.30;99.90;;;;;;6249604;22;20127;-83
2023/05/25 10:24:23;;;;;;;24.48;5.95;;;15.50;99.90;;;;;;6275131;22;20018;-83
2023/05/25 10:26:53;;;;;;;30.08;5.78;;;15.10;99.90;;;;;;6275029;22;20020;-82
2023/05/25 10:29:20;;;;;;;17.83;5.18;;;15.30;99.90;;;;;;6275235;22;20008;-83
2023/05/25 10:31:47;;;;;;;20.55;5.13;;;15.40;99.90;;;;;;6275220;22;20394;-82
2023/05/25 10:34:13;;;;;;;15.43;4.30;;;15.40;99.90;;;;;;6249577;22;20461;-83
2023/05/25 10:36:40;;;;;;;19.90;5.75;;;15.60;99.90;;;;;;6275296;22;20023;-84
2023/05/25 10:39:07;;;;;;;13.15;5.68;;;15.40;99.90;;;;;;6224450;22;20016;-84
2023/05/25 10:41:33;;;;;;;22.08;5.68;;;;;;;;;;6249686;22;20024;-84
2023/05/25 10:44:00;;;;;;;24.50;5.45;;;;;;;;;;6224312;22;20042;-84
2023/05/25 10:46:26;;;;;;;24.45;5.03;;;15.70;99.90;;;;;;6275054;22;20074;-84
2023/05/25 10:48:59;;;;;;;16.98;5.88;;;;;;;;;;6224495;22;20147;-84
2023/05/25 10:51:39;;;;;;;25.25;5.45;;;15.80;99.90;;;;;;6249684;22;20061;-84
2023/05/25 10:54:05;;;;;;;13.40;5.10;;;15.50;99.90;;;;;;6274747;22;20015;-82
2023/05/25 10:56:31;;;;;;;24.02;4.90;;;;;;;;;;6249351;22;20043;-83
2023/05/25 10:58:57;;;;;;;16.25;4.60;;;;;;;;;;6274951;22;20011;-83
2023/05/25 11:01:24;;;;;;;20.63;4.20;;;15.50;99.90;;;;;;6249573;22;20020;-82
2023/05/25 11:03:55;;;;;;;13.63;4.22;;;15.50;99.90;;;;;;6274817;22;20030;-81
2023/05/25 11:06:39;;;;;;;20.90;5.85;;;15.60;99.90;;;;;;6274690;22;20074;-81
2023/05/25 11:09:05;;;;;;;11.55;4.68;;;;;;;;;;6249251;22;20016;-83
2023/05/25 11:11:46;;;;;;;16.67;5.10;;;15.60;99.90;;;;;;6274793;22;20015;-82
2023/05/25 11:14:22;;;;;;;18.02;4.95;;;15.60;99.90;;;;;;6274641;22;20027;-82
2023/05/25 11:17:13;;;;;;;30.55;6.28;;;16.10;99.90;;;;;;6274778;22;20015;-82
2023/05/25 11:19:50;;;;;;;19.65;5.57;;;15.80;99.90;;;;;;6249136;22;20019;-82
2023/05/25 11:22:19;;;;;;;16.50;5.43;;;;;;;;;;6248958;22;20322;-82
2023/05/25 11:25:00;;;;;;;14.30;5.07;;;15.90;99.90;;;;;;6274601;22;20041;-83
2023/05/25 11:27:31;;;;;;;14.25;5.18;;;16.20;99.90;;;;;;6274694;22;20457;-83
2023/05/25 11:29:58;;;;;;;19.92;5.93;;;15.80;99.90;;;;;;6274795;22;20099;-82
2023/05/25 11:32:27;;;;;;;18.50;5.47;;;15.90;99.90;;;;;;6223898;22;20024;-81
2023/05/25 11:34:57;;;;;;;21.20;4.80;;;;;;;;;;6248958;22;20111;-82
2023/05/25 11:37:30;;;;;;;17.05;4.57;;;16.00;99.90;;;;;;6274484;22;20016;-82
2023/05/25 11:39:56;;;;;;;14.98;5.03;;;;;;;;;;6274410;22;20023;-82
2023/05/25 11:42:23;;;;;;;21.45;5.88;;;15.90;99.90;;;;;;6249209;22;20381;-82
2023/05/25 11:44:50;;;;;;;22.73;5.30;;;;;;;;;;6248708;22;20337;-82
2023/05/25 11:47:21;;;;;;;16.27;4.00;;;16.10;99.90;;;;;;6274377;22;20027;-83
2023/05/25 11:49:48;;;;;;;25.08;4.65;;;;;;;;;;6248916;22;20047;-83
2023/05/25 11:52:16;;;;;;;16.48;6.18;;;16.10;99.90;;;;;;6248935;22;20027;-82
2023/05/25 11:54:42;;;;;;;18.45;5.10;;;;;;;;;;6249143;22;20321;-83
2023/05/25 11:57:16;;;;;;;17.95;4.72;;;15.90;99.90;;;;;;6249276;22;20016;-84
2023/05/25 12:00:05;;;;;;;20.25;4.70;;;16.00;99.90;;;;;;6248971;22;20012;-84
2023/05/25 12:02:37;;;;;;;19.15;6.32;;;15.70;99.90;;;;;;6248953;22;20011;-85
2023/05/25 12:05:03;;;;;;;14.25;4.50;;;16.00;99.90;;;;;;6224216;22;20016;-83
2023/05/25 12:07:30;;;;;;;15.57;5.38;;;15.70;99.90;;;;;;6248976;22;20449;-82
2023/05/25 12:10:09;;;;;;;19.65;6.47;;;15.80;99.90;;;;;;6249085;22;20020;-82
2023/05/25 12:12:49;;;;;;;16.00;5.45;;;15.80;99.90;;;;;;6248880;22;20015;-85
2023/05/25 12:15:23;;;;;;;19.73;4.78;;;16.30;99.90;;;;;;6274302;22;20103;-84
2023/05/25 12:17:49;;;;;;;;;;;15.90;99.90;;;;;;6275033;22;20065;-85
2023/05/25 12:20:16;;;;;;;18.60;4.75;;;;;;;;;;6274466;22;19965;-83
2023/05/25 12:22:43;;;;;;;15.40;5.22;;;16.00;99.90;;;;;;6274455;22;20016;-86
2023/05/25 12:25:11;;;;;;;20.17;5.07;;;16.30;99.90;;;;;;6274232;22;20061;-84
2023/05/25 12:27:38;;;;;;;24.58;4.75;;;;;;;;;;6274454;22;20012;-85
2023/05/25 12:30:06;;;;;;;15.25;5.28;;;15.90;99.90;;;;;;6274489;22;20387;-84
2023/05/25 12:32:33;;;;;;;22.05;5.78;;;;;;;;;;6274291;22;20016;-84
2023/05/25 12:35:05;;;;;;;29.42;5.05;;;16.20;99.90;;;;;;6223688;22;20016;-84
2023/05/25 12:37:32;;;;;;;20.27;5.22;;;;;;;;;;6249857;22;20028;-84
2023/05/25 12:39:58;;;;;;;24.13;6.80;;;;;;;;;;6249141;22;20491;-84
2023/05/25 12:42:30;;;;;;;17.50;4.85;;;;;;;;;;6248920;22;20019;-82
2023/05/25 12:45:02;;;;;;;20.63;5.88;;;16.30;99.90;;;;;;6274191;22;20065;-81
2023/05/25 12:47:29;;;;;;;16.45;5.18;;;16.40;99.90;;;;;;6274338;22;20145;-81
2023/05/25 12:50:12;;;;;;;15.93;4.95;;;16.30;99.90;;;;;;6248764;22;20016;-81
2023/05/25 12:52:43;;;;;;;22.20;5.10;;;16.40;99.90;;;;;;6248448;22;20384;-81
2023/05/25 12:55:30;;;;;;;17.25;5.25;;;16.40;99.90;;;;;;6273910;22;20065;-81
2023/05/25 12:57:57;;;;;;;27.25;5.32;;;;;;;;;;6274215;22;20019;-81
2023/05/25 13:00:27;;;;;;;20.20;5.43;;;16.70;99.90;;;;;;6274393;22;20089;-81
2023/05/25 13:02:53;;;;;;;16.55;4.40;;;16.80;99.90;;;;;;6274005;22;20372;-81
2023/05/25 13:05:24;;;;;;;24.75;5.72;;;16.70;99.90;;;;;;6276037;22;20047;-81
2023/05/25 13:07:50;;;;;;;18.83;5.60;;;16.70;99.90;;;;;;6248516;22;20454;-82
2023/05/25 13:10:17;;;;;;;18.92;5.63;;;;;;;;;;6248871;22;20119;-81
2023/05/25 13:12:44;;;;;;;15.48;5.32;;;16.90;99.90;;;;;;6275938;22;20011;-81
2023/05/25 13:15:10;;;;;;;14.77;5.22;;;16.90;99.90;;;;;;6275699;22;20018;-81
2023/05/25 13:17:36;;;;;;;18.23;5.45;;;16.80;99.90;;;;;;6275888;22;20090;-81
2023/05/25 13:20:03;;;;;;;15.77;6.28;;;16.80;99.90;;;;;;6200110;22;20073;-82
2023/05/25 13:22:29;;;;;;;13.20;5.25;;;16.80;99.90;;;;;;6250305;22;20027;-81
2023/05/25 13:24:54;;;;;;;14.30;4.85;;;17.00;99.90;;;;;;6250149;22;20016;-80
2023/05/25 13:27:20;;;;;;;22.20;5.53;;;16.70;99.90;;;;;;6275890;22;20464;-81
2023/05/25 13:29:46;;;;;;;13.70;4.82;;;;;;;;;;6199905;22;20016;-81
2023/05/25 13:32:12;;;;;;;18.27;5.57;;;;;;;;;;6275578;22;20069;-81
2023/05/25 13:34:38;;;;;;;18.38;5.90;;;16.80;99.90;;;;;;6225040;22;20113;-84
2023/05/25 13:37:04;;;;;;;26.52;6.03;;;16.70;99.90;;;;;;6250759;22;20193;-84
2023/05/25 13:39:30;;;;;;;21.52;6.22;;;;;;;;;;6275716;22;20464;-84
2023/05/25 13:41:57;;;;;;;16.20;5.45;;;;;;;;;;6250181;22;20551;-83
2023/05/25 13:44:22;;;;;;;14.48;5.90;;;16.90;99.90;;;;;;6275303;22;20034;-82
2023/05/25 13:46:48;;;;;;;23.85;5.95;;;16.70;99.90;;;;;;6250238;22;20047;-84
2023/05/25 13:49:18;;;;;;;25.55;6.00;;;;;;;;;;6224882;22;20042;-85